sensor_id;sensor_type;location;lat;lon;timestamp;pressure;altitude;pressure_sealevel;temperature;humidity
7918;BME280;4004;42.624;23.386;2023-07-09T00:00:14;94565.72;;;20.18;58.77
7918;BME280;4004;42.624;23.386;2023-07-09T00:02:43;94566.84;;;20.20;58.72
7918;BME280;4004;42.624;23.386;2023-07-09T00:05:12;94571.25;;;20.11;58.86
7918;BME280;4004;42.624;23.386;2023-07-09T00:07:39;94572.09;;;20.04;58.90
7918;BME280;4004;42.624;23.386;2023-07-09T00:10:14;94561.25;;;19.97;58.47
7918;BME280;4004;42.624;23.386;2023-07-09T00:12:41;94555.78;;;19.97;58.92
7918;BME280;4004;42.624;23.386;2023-07-09T00:15:10;94563.13;;;20.03;59.56
7918;BME280;4004;42.624;23.386;2023-07-09T00:17:37;94560.44;;;20.00;58.56
7918;BME280;4004;42.624;23.386;2023-07-09T00:20:06;94551.13;;;19.94;58.79
7918;BME280;4004;42.624;23.386;2023-07-09T00:22:39;94556.50;;;20.01;59.40
7918;BME280;4004;42.624;23.386;2023-07-09T00:25:09;94551.94;;;19.91;59.78
7918;BME280;4004;42.624;23.386;2023-07-09T00:27:39;94554.75;;;19.83;59.61
7918;BME280;4004;42.624;23.386;2023-07-09T00:30:14;94552.84;;;19.77;58.56
7918;BME280;4004;42.624;23.386;2023-07-09T00:32:42;94545.88;;;19.72;59.14
7918;BME280;4004;42.624;23.386;2023-07-09T00:35:09;94546.50;;;19.87;58.97
7918;BME280;4004;42.624;23.386;2023-07-09T00:37:37;94541.81;;;19.87;58.89
7918;BME280;4004;42.624;23.386;2023-07-09T00:40:11;94548.16;;;19.77;58.47
7918;BME280;4004;42.624;23.386;2023-07-09T00:42:43;94539.63;;;19.75;59.59
7918;BME280;4004;42.624;23.386;2023-07-09T00:45:19;94543.88;;;19.76;59.14
7918;BME280;4004;42.624;23.386;2023-07-09T00:47:49;94539.63;;;19.75;59.27
7918;BME280;4004;42.624;23.386;2023-07-09T00:50:27;94544.25;;;19.78;59.32
7918;BME280;4004;42.624;23.386;2023-07-09T00:52:59;94540.72;;;19.81;58.69
7918;BME280;4004;42.624;23.386;2023-07-09T00:55:30;94540.81;;;19.71;58.55
7918;BME280;4004;42.624;23.386;2023-07-09T00:58:01;94535.31;;;19.74;58.80
7918;BME280;4004;42.624;23.386;2023-07-09T01:00:32;94528.69;;;19.79;58.84
7918;BME280;4004;42.624;23.386;2023-07-09T01:03:08;94534.47;;;19.84;58.74
7918;BME280;4004;42.624;23.386;2023-07-09T01:05:37;94538.03;;;19.74;58.00
7918;BME280;4004;42.624;23.386;2023-07-09T01:08:05;94526.78;;;19.72;58.58
7918;BME280;4004;42.624;23.386;2023-07-09T01:10:35;94539.63;;;19.75;58.97
7918;BME280;4004;42.624;23.386;2023-07-09T01:13:02;94541.13;;;19.80;58.14
7918;BME280;4004;42.624;23.386;2023-07-09T01:15:28;94540.66;;;19.88;58.34
7918;BME280;4004;42.624;23.386;2023-07-09T01:17:56;94537.19;;;19.84;57.41
7918;BME280;4004;42.624;23.386;2023-07-09T01:20:23;94530.13;;;19.87;58.49
7918;BME280;4004;42.624;23.386;2023-07-09T01:22:52;94527.41;;;19.87;58.08
7918;BME280;4004;42.624;23.386;2023-07-09T01:25:23;94532.53;;;19.81;57.55
7918;BME280;4004;42.624;23.386;2023-07-09T01:27:50;94527.09;;;19.81;57.91
7918;BME280;4004;42.624;23.386;2023-07-09T01:30:19;94530.22;;;19.76;58.46
7918;BME280;4004;42.624;23.386;2023-07-09T01:32:48;94528.34;;;19.70;60.82
7918;BME280;4004;42.624;23.386;2023-07-09T01:35:16;94525.97;;;19.26;63.89
7918;BME280;4004;42.624;23.386;2023-07-09T01:37:44;94521.44;;;19.05;67.86
7918;BME280;4004;42.624;23.386;2023-07-09T01:40:16;94473.59;;;18.31;69.03
7918;BME280;4004;42.624;23.386;2023-07-09T01:42:43;94527.97;;;18.38;72.22
7918;BME280;4004;42.624;23.386;2023-07-09T01:45:11;94539.69;;;18.28;73.35
7918;BME280;4004;42.624;23.386;2023-07-09T01:47:38;94539.72;;;18.13;74.97
7918;BME280;4004;42.624;23.386;2023-07-09T01:50:06;94547.50;;;18.15;77.22
7918;BME280;4004;42.624;23.386;2023-07-09T01:52:33;94539.38;;;18.08;77.18
7918;BME280;4004;42.624;23.386;2023-07-09T01:55:00;94544.44;;;18.02;77.19
7918;BME280;4004;42.624;23.386;2023-07-09T01:57:30;94551.03;;;17.76;78.27
7918;BME280;4004;42.624;23.386;2023-07-09T02:00:01;94551.06;;;17.72;79.80
7918;BME280;4004;42.624;23.386;2023-07-09T02:02:31;94546.00;;;17.60;80.94
7918;BME280;4004;42.624;23.386;2023-07-09T02:04:58;94546.03;;;17.56;81.67
7918;BME280;4004;42.624;23.386;2023-07-09T02:07:26;94524.66;;;17.33;83.99
7918;BME280;4004;42.624;23.386;2023-07-09T02:09:53;94546.03;;;17.46;84.78
7918;BME280;4004;42.624;23.386;2023-07-09T02:12:19;94547.97;;;17.49;85.30
7918;BME280;4004;42.624;23.386;2023-07-09T02:14:48;94555.72;;;17.50;84.36
7918;BME280;4004;42.624;23.386;2023-07-09T02:17:15;94552.25;;;17.50;84.84
7918;BME280;4004;42.624;23.386;2023-07-09T02:19:42;94549.91;;;17.45;85.05
7918;BME280;4004;42.624;23.386;2023-07-09T02:22:10;94554.56;;;17.44;88.04
7918;BME280;4004;42.624;23.386;2023-07-09T02:24:37;94554.16;;;17.49;87.53
7918;BME280;4004;42.624;23.386;2023-07-09T02:27:06;94557.66;;;17.46;86.70
7918;BME280;4004;42.624;23.386;2023-07-09T02:29:34;94567.75;;;17.35;87.41
7918;BME280;4004;42.624;23.386;2023-07-09T02:32:02;94561.53;;;17.27;90.51
7918;BME280;4004;42.624;23.386;2023-07-09T02:34:30;94559.97;;;17.12;90.03
7918;BME280;4004;42.624;23.386;2023-07-09T02:36:58;94566.16;;;16.94;90.99
7918;BME280;4004;42.624;23.386;2023-07-09T02:39:26;94565.63;;;16.56;95.76
7918;BME280;4004;42.624;23.386;2023-07-09T02:41:53;94578.41;;;16.52;98.26
7918;BME280;4004;42.624;23.386;2023-07-09T02:44:20;94576.09;;;16.54;99.77
7918;BME280;4004;42.624;23.386;2023-07-09T02:46:47;94579.13;;;16.42;98.83
7918;BME280;4004;42.624;23.386;2023-07-09T02:49:15;94584.44;;;16.21;100.00
7918;BME280;4004;42.624;23.386;2023-07-09T02:51:42;94583.16;;;16.00;100.00
7918;BME280;4004;42.624;23.386;2023-07-09T02:54:09;94581.97;;;15.94;100.00
7918;BME280;4004;42.624;23.386;2023-07-09T02:56:35;94578.94;;;16.06;100.00
7918;BME280;4004;42.624;23.386;2023-07-09T02:59:02;94583.28;;;16.14;100.00
7918;BME280;4004;42.624;23.386;2023-07-09T03:01:29;94584.47;;;16.24;100.00
7918;BME280;4004;42.624;23.386;2023-07-09T03:03:58;94582.97;;;16.34;100.00
7918;BME280;4004;42.624;23.386;2023-07-09T03:06:29;94589.59;;;16.40;100.00
7918;BME280;4004;42.624;23.386;2023-07-09T03:08:59;94591.97;;;16.49;100.00
7918;BME280;4004;42.624;23.386;2023-07-09T03:11:28;94596.25;;;16.61;99.92
7918;BME280;4004;42.624;23.386;2023-07-09T03:13:56;94593.25;;;16.80;99.24
7918;BME280;4004;42.624;23.386;2023-07-09T03:16:23;94601.88;;;17.04;96.58
7918;BME280;4004;42.624;23.386;2023-07-09T03:18:52;94598.44;;;17.39;94.38
7918;BME280;4004;42.624;23.386;2023-07-09T03:21:19;94606.25;;;17.94;91.24
7918;BME280;4004;42.624;23.386;2023-07-09T03:23:47;94574.66;;;18.33;85.38
7918;BME280;4004;42.624;23.386;2023-07-09T03:26:14;94607.78;;;19.16;81.09
7918;BME280;4004;42.624;23.386;2023-07-09T03:28:41;94607.06;;;19.67;73.26
7918;BME280;4004;42.624;23.386;2023-07-09T03:31:08;94604.41;;;20.09;69.48
7918;BME280;4004;42.624;23.386;2023-07-09T03:33:35;94609.59;;;21.06;65.74
7918;BME280;4004;42.624;23.386;2023-07-09T03:36:02;94615.25;;;21.77;62.37
7918;BME280;4004;42.624;23.386;2023-07-09T03:38:30;94618.13;;;22.61;58.95
7918;BME280;4004;42.624;23.386;2023-07-09T03:40:59;94620.81;;;23.41;55.45
7918;BME280;4004;42.624;23.386;2023-07-09T03:43:25;94612.94;;;24.41;52.57
7918;BME280;4004;42.624;23.386;2023-07-09T03:45:52;94619.81;;;24.78;49.23
7918;BME280;4004;42.624;23.386;2023-07-09T03:48:20;94612.16;;;25.54;48.12
7918;BME280;4004;42.624;23.386;2023-07-09T03:50:47;94616.41;;;26.19;45.75
7918;BME280;4004;42.624;23.386;2023-07-09T03:53:15;94624.88;;;27.16;43.82
7918;BME280;4004;42.624;23.386;2023-07-09T03:55:42;94626.22;;;28.05;41.31
7918;BME280;4004;42.624;23.386;2023-07-09T03:58:12;94626.00;;;29.23;40.20
7918;BME280;4004;42.624;23.386;2023-07-09T04:00:38;94625.44;;;30.38;38.41
7918;BME280;4004;42.624;23.386;2023-07-09T04:03:05;94628.63;;;31.38;36.32
7918;BME280;4004;42.624;23.386;2023-07-09T04:05:33;94627.91;;;32.03;34.65
7918;BME280;4004;42.624;23.386;2023-07-09T04:08:00;94637.88;;;32.65;33.68
7918;BME280;4004;42.624;23.386;2023-07-09T04:10:27;94637.56;;;33.30;32.61
7918;BME280;4004;42.624;23.386;2023-07-09T04:12:54;94641.94;;;33.95;31.89
7918;BME280;4004;42.624;23.386;2023-07-09T04:15:22;94645.25;;;34.31;30.68
7918;BME280;4004;42.624;23.386;2023-07-09T04:17:49;94646.72;;;34.63;29.58
7918;BME280;4004;42.624;23.386;2023-07-09T04:20:17;94642.88;;;35.15;29.22
7918;BME280;4004;42.624;23.386;2023-07-09T04:22:44;94656.91;;;35.88;28.14
7918;BME280;4004;42.624;23.386;2023-07-09T04:25:11;94660.00;;;36.13;28.42
7918;BME280;4004;42.624;23.386;2023-07-09T04:27:39;94662.22;;;36.37;27.04
7918;BME280;4004;42.624;23.386;2023-07-09T04:30:09;94662.22;;;36.37;27.41
7918;BME280;4004;42.624;23.386;2023-07-09T04:32:38;94660.75;;;36.02;27.01
7918;BME280;4004;42.624;23.386;2023-07-09T04:35:05;94663.25;;;34.73;28.43
7918;BME280;4004;42.624;23.386;2023-07-09T04:37:32;94663.63;;;32.80;30.46
7918;BME280;4004;42.624;23.386;2023-07-09T04:39:58;94672.31;;;31.82;31.76
7918;BME280;4004;42.624;23.386;2023-07-09T04:42:25;94665.47;;;31.09;33.06
7918;BME280;4004;42.624;23.386;2023-07-09T04:44:52;94663.38;;;29.98;34.21
7918;BME280;4004;42.624;23.386;2023-07-09T04:47:19;94662.88;;;29.57;35.20
7918;BME280;4004;42.624;23.386;2023-07-09T04:49:47;94650.66;;;28.84;37.61
7918;BME280;4004;42.624;23.386;2023-07-09T04:52:14;94658.19;;;29.11;38.16
7918;BME280;4004;42.624;23.386;2023-07-09T04:54:41;94658.91;;;29.40;37.66
7918;BME280;4004;42.624;23.386;2023-07-09T04:57:10;94659.81;;;29.46;37.29
7918;BME280;4004;42.624;23.386;2023-07-09T06:48:24;94654.38;;;33.62;29.17
7918;BME280;4004;42.624;23.386;2023-07-09T06:50:52;94659.88;;;33.82;29.21
7918;BME280;4004;42.624;23.386;2023-07-09T06:53:19;94664.03;;;33.98;29.54
7918;BME280;4004;42.624;23.386;2023-07-09T06:55:47;94644.63;;;33.78;28.95
7918;BME280;4004;42.624;23.386;2023-07-09T06:58:15;94651.91;;;32.97;29.62
7918;BME280;4004;42.624;23.386;2023-07-09T07:00:42;94650.75;;;32.62;30.13
7918;BME280;4004;42.624;23.386;2023-07-09T07:03:09;94656.00;;;31.90;31.00
7918;BME280;4004;42.624;23.386;2023-07-09T07:05:37;94654.56;;;31.94;30.90
7918;BME280;4004;42.624;23.386;2023-07-09T07:08:09;94651.69;;;31.89;31.45
7918;BME280;4004;42.624;23.386;2023-07-09T07:10:36;94650.66;;;31.71;31.54
7918;BME280;4004;42.624;23.386;2023-07-09T07:13:03;94650.88;;;31.53;31.06
7918;BME280;4004;42.624;23.386;2023-07-09T07:15:29;94645.97;;;31.77;31.39
7918;BME280;4004;42.624;23.386;2023-07-09T07:17:56;94649.63;;;31.54;32.69
7918;BME280;4004;42.624;23.386;2023-07-09T07:20:23;94654.19;;;31.57;32.05
7918;BME280;4004;42.624;23.386;2023-07-09T07:22:51;94650.69;;;31.42;32.02
7918;BME280;4004;42.624;23.386;2023-07-09T07:25:18;94647.81;;;31.51;32.78
7918;BME280;4004;42.624;23.386;2023-07-09T07:27:45;94652.00;;;31.76;32.02
7918;BME280;4004;42.624;23.386;2023-07-09T07:30:12;94644.00;;;31.84;31.96
7918;BME280;4004;42.624;23.386;2023-07-09T07:32:43;94640.66;;;31.94;32.11
7918;BME280;4004;42.624;23.386;2023-07-09T07:35:10;94644.44;;;32.27;31.79
7918;BME280;4004;42.624;23.386;2023-07-09T07:37:38;94643.03;;;32.16;31.85
7918;BME280;4004;42.624;23.386;2023-07-09T07:40:08;94634.47;;;32.20;31.26
7918;BME280;4004;42.624;23.386;2023-07-09T07:42:36;94639.94;;;32.14;31.59
7918;BME280;4004;42.624;23.386;2023-07-09T07:45:03;94644.50;;;32.32;31.26
7918;BME280;4004;42.624;23.386;2023-07-09T07:47:30;94641.66;;;32.27;31.63
7918;BME280;4004;42.624;23.386;2023-07-09T07:49:57;94635.56;;;32.08;32.30
7918;BME280;4004;42.624;23.386;2023-07-09T07:52:24;94636.69;;;32.16;31.53
7918;BME280;4004;42.624;23.386;2023-07-09T07:54:51;94641.22;;;32.13;31.60
7918;BME280;4004;42.624;23.386;2023-07-09T07:57:19;94640.53;;;32.18;31.94
7918;BME280;4004;42.624;23.386;2023-07-09T07:59:46;94641.50;;;32.15;31.48
7918;BME280;4004;42.624;23.386;2023-07-09T08:02:14;94640.38;;;32.07;31.79
7918;BME280;4004;42.624;23.386;2023-07-09T08:04:41;94634.59;;;31.96;31.69
7918;BME280;4004;42.624;23.386;2023-07-09T08:07:08;94640.50;;;31.98;32.26
7918;BME280;4004;42.624;23.386;2023-07-09T08:09:36;94633.41;;;31.67;32.25
7918;BME280;4004;42.624;23.386;2023-07-09T08:12:04;94624.03;;;31.65;31.94
7918;BME280;4004;42.624;23.386;2023-07-09T08:14:36;94628.59;;;31.23;32.61
7918;BME280;4004;42.624;23.386;2023-07-09T08:17:04;94612.53;;;30.73;33.62
7918;BME280;4004;42.624;23.386;2023-07-09T08:19:31;94607.97;;;30.61;33.75
7918;BME280;4004;42.624;23.386;2023-07-09T08:21:58;94613.25;;;30.59;33.56
7918;BME280;4004;42.624;23.386;2023-07-09T08:24:24;94609.66;;;30.44;32.79
7918;BME280;4004;42.624;23.386;2023-07-09T08:26:51;94609.41;;;30.08;33.35
7918;BME280;4004;42.624;23.386;2023-07-09T08:29:18;94613.28;;;30.26;34.07
7918;BME280;4004;42.624;23.386;2023-07-09T08:31:46;94602.66;;;30.33;33.70
7918;BME280;4004;42.624;23.386;2023-07-09T08:34:13;94609.56;;;30.38;34.09
7918;BME280;4004;42.624;23.386;2023-07-09T08:36:39;94610.53;;;30.02;34.69
7918;BME280;4004;42.624;23.386;2023-07-09T08:39:06;94606.97;;;30.01;35.07
7918;BME280;4004;42.624;23.386;2023-07-09T08:41:38;94602.66;;;30.00;34.38
7918;BME280;4004;42.624;23.386;2023-07-09T08:44:21;94602.72;;;29.91;34.94
7918;BME280;4004;42.624;23.386;2023-07-09T08:47:00;94607.25;;;30.03;34.92
7918;BME280;4004;42.624;23.386;2023-07-09T08:49:37;94605.19;;;29.89;35.33
7918;BME280;4004;42.624;23.386;2023-07-09T08:52:11;94610.81;;;29.61;34.90
7918;BME280;4004;42.624;23.386;2023-07-09T08:54:41;94602.25;;;29.50;34.97
7918;BME280;4004;42.624;23.386;2023-07-09T08:57:17;94597.72;;;29.19;35.93
7918;BME280;4004;42.624;23.386;2023-07-09T08:59:45;94607.88;;;29.04;36.58
7918;BME280;4004;42.624;23.386;2023-07-09T09:02:25;94601.63;;;28.66;37.24
7918;BME280;4004;42.624;23.386;2023-07-09T09:04:55;94603.59;;;28.57;37.22
7918;BME280;4004;42.624;23.386;2023-07-09T09:07:32;94604.53;;;28.72;37.59
7918;BME280;4004;42.624;23.386;2023-07-09T09:10:03;94605.78;;;28.62;37.89
7918;BME280;4004;42.624;23.386;2023-07-09T09:12:33;94604.84;;;28.56;37.96
7918;BME280;4004;42.624;23.386;2023-07-09T09:15:04;94603.75;;;28.53;38.23
7918;BME280;4004;42.624;23.386;2023-07-09T09:17:39;94607.47;;;28.59;38.54
7918;BME280;4004;42.624;23.386;2023-07-09T09:20:09;94603.31;;;28.64;38.46
7918;BME280;4004;42.624;23.386;2023-07-09T09:22:42;94594.38;;;28.60;38.08
7918;BME280;4004;42.624;23.386;2023-07-09T09:25:18;94600.34;;;28.40;39.06
7918;BME280;4004;42.624;23.386;2023-07-09T09:27:47;94600.16;;;28.25;38.81
7918;BME280;4004;42.624;23.386;2023-07-09T09:30:16;94594.31;;;28.04;39.29
7918;BME280;4004;42.624;23.386;2023-07-09T09:32:47;94603.09;;;27.72;40.05
7918;BME280;4004;42.624;23.386;2023-07-09T09:35:17;94597.63;;;27.49;41.75
7918;BME280;4004;42.624;23.386;2023-07-09T09:37:50;94598.00;;;27.70;41.26
7918;BME280;4004;42.624;23.386;2023-07-09T09:40:18;94588.25;;;27.87;40.44
7918;BME280;4004;42.624;23.386;2023-07-09T09:42:47;94592.78;;;27.72;40.84
7918;BME280;4004;42.624;23.386;2023-07-09T09:45:16;94587.94;;;27.85;39.75
7918;BME280;4004;42.624;23.386;2023-07-09T09:47:44;94594.81;;;27.81;40.81
7918;BME280;4004;42.624;23.386;2023-07-09T09:50:13;94577.03;;;27.82;40.44
7918;BME280;4004;42.624;23.386;2023-07-09T09:52:41;94582.28;;;27.89;39.87
7918;BME280;4004;42.624;23.386;2023-07-09T09:55:12;94577.97;;;27.88;39.91
7918;BME280;4004;42.624;23.386;2023-07-09T09:57:47;94586.63;;;27.68;39.99
7918;BME280;4004;42.624;23.386;2023-07-09T10:00:15;94582.97;;;27.71;39.65
7918;BME280;4004;42.624;23.386;2023-07-09T10:02:42;94582.50;;;27.32;40.02
7918;BME280;4004;42.624;23.386;2023-07-09T10:05:13;94576.94;;;27.23;40.41
7918;BME280;4004;42.624;23.386;2023-07-09T10:07:44;94580.09;;;27.43;39.93
7918;BME280;4004;42.624;23.386;2023-07-09T10:10:16;94584.94;;;27.30;40.21
7918;BME280;4004;42.624;23.386;2023-07-09T10:12:49;94578.22;;;27.09;40.90
7918;BME280;4004;42.624;23.386;2023-07-09T10:15:25;94572.28;;;26.88;41.05
7918;BME280;4004;42.624;23.386;2023-07-09T10:18:01;94570.91;;;26.49;41.06
7918;BME280;4004;42.624;23.386;2023-07-09T10:20:35;94576.13;;;26.34;42.21
7918;BME280;4004;42.624;23.386;2023-07-09T10:23:13;94564.22;;;26.37;43.19
7918;BME280;4004;42.624;23.386;2023-07-09T10:25:45;94569.06;;;26.46;42.46
7918;BME280;4004;42.624;23.386;2023-07-09T10:28:26;94562.41;;;26.56;42.03
7918;BME280;4004;42.624;23.386;2023-07-09T10:31:02;94559.22;;;26.58;40.59
7918;BME280;4004;42.624;23.386;2023-07-09T10:33:43;94560.03;;;26.67;40.99
7918;BME280;4004;42.624;23.386;2023-07-09T10:36:25;94562.28;;;26.60;40.97
7918;BME280;4004;42.624;23.386;2023-07-09T10:39:00;94559.28;;;26.54;41.15
7918;BME280;4004;42.624;23.386;2023-07-09T10:41:30;94557.38;;;26.42;40.35
7918;BME280;4004;42.624;23.386;2023-07-09T10:44:01;94556.91;;;26.43;40.51
7918;BME280;4004;42.624;23.386;2023-07-09T10:46:32;94547.94;;;26.52;40.26
7918;BME280;4004;42.624;23.386;2023-07-09T10:49:01;94546.72;;;26.66;41.54
7918;BME280;4004;42.624;23.386;2023-07-09T10:51:37;94546.06;;;26.62;40.78
7918;BME280;4004;42.624;23.386;2023-07-09T10:54:09;94549.94;;;26.52;40.54
7918;BME280;4004;42.624;23.386;2023-07-09T10:56:40;94554.13;;;26.56;41.20
7918;BME280;4004;42.624;23.386;2023-07-09T10:59:17;94546.19;;;26.58;41.22
7918;BME280;4004;42.624;23.386;2023-07-09T11:01:50;94548.63;;;26.43;39.81
7918;BME280;4004;42.624;23.386;2023-07-09T11:04:26;94553.31;;;26.34;39.56
7918;BME280;4004;42.624;23.386;2023-07-09T11:06:58;94536.28;;;26.26;40.58
7918;BME280;4004;42.624;23.386;2023-07-09T11:09:30;94545.50;;;26.32;40.33
7918;BME280;4004;42.624;23.386;2023-07-09T11:12:04;94545.97;;;26.31;39.42
7918;BME280;4004;42.624;23.386;2023-07-09T11:14:35;94546.78;;;26.40;39.21
7918;BME280;4004;42.624;23.386;2023-07-09T11:17:04;94539.94;;;26.45;40.70
7918;BME280;4004;42.624;23.386;2023-07-09T11:19:41;94544.72;;;26.66;39.54
7918;BME280;4004;42.624;23.386;2023-07-09T11:22:16;94544.56;;;26.70;37.47
7918;BME280;4004;42.624;23.386;2023-07-09T11:24:48;94543.81;;;26.70;38.54
7918;BME280;4004;42.624;23.386;2023-07-09T11:27:21;94545.47;;;26.67;38.53
7918;BME280;4004;42.624;23.386;2023-07-09T11:29:56;94533.94;;;26.59;38.70
7918;BME280;4004;42.624;23.386;2023-07-09T11:32:23;94544.88;;;26.72;37.86
7918;BME280;4004;42.624;23.386;2023-07-09T11:34:50;94531.38;;;26.65;37.30
7918;BME280;4004;42.624;23.386;2023-07-09T11:37:20;94544.56;;;26.70;37.54
7918;BME280;4004;42.624;23.386;2023-07-09T11:39:49;94544.88;;;26.72;37.12
7918;BME280;4004;42.624;23.386;2023-07-09T11:42:28;94511.09;;;26.59;36.47
7918;BME280;4004;42.624;23.386;2023-07-09T11:45:01;94534.06;;;26.78;36.11
7918;BME280;4004;42.624;23.386;2023-07-09T11:47:33;94533.84;;;26.72;36.21
7918;BME280;4004;42.624;23.386;2023-07-09T11:50:04;94536.63;;;26.72;36.82
7918;BME280;4004;42.624;23.386;2023-07-09T11:52:35;94534.19;;;26.74;36.94
7918;BME280;4004;42.624;23.386;2023-07-09T11:55:19;94529.56;;;26.71;38.50
7918;BME280;4004;42.624;23.386;2023-07-09T11:57:48;94529.94;;;26.82;36.80
7918;BME280;4004;42.624;23.386;2023-07-09T12:00:15;94533.78;;;26.85;37.33
7918;BME280;4004;42.624;23.386;2023-07-09T12:02:42;94524.16;;;26.90;37.20
7918;BME280;4004;42.624;23.386;2023-07-09T12:05:10;94537.25;;;26.76;36.63
7918;BME280;4004;42.624;23.386;2023-07-09T12:07:38;94530.25;;;26.84;36.85
7918;BME280;4004;42.624;23.386;2023-07-09T12:10:18;94523.75;;;27.00;37.64
7918;BME280;4004;42.624;23.386;2023-07-09T12:12:46;94525.31;;;27.01;37.52
7918;BME280;4004;42.624;23.386;2023-07-09T12:15:17;94529.34;;;26.87;38.17
7918;BME280;4004;42.624;23.386;2023-07-09T12:17:52;94527.56;;;26.94;37.87
7918;BME280;4004;42.624;23.386;2023-07-09T12:20:20;94519.31;;;27.03;38.43
7918;BME280;4004;42.624;23.386;2023-07-09T12:22:48;94525.75;;;27.00;38.68
7918;BME280;4004;42.624;23.386;2023-07-09T12:25:21;94521.59;;;26.95;39.80
7918;BME280;4004;42.624;23.386;2023-07-09T12:27:48;94526.91;;;26.90;40.42
7918;BME280;4004;42.624;23.386;2023-07-09T12:30:15;94509.16;;;26.91;39.69
7918;BME280;4004;42.624;23.386;2023-07-09T12:32:46;94512.09;;;26.96;39.63
7918;BME280;4004;42.624;23.386;2023-07-09T12:35:16;94502.63;;;27.06;39.52
7918;BME280;4004;42.624;23.386;2023-07-09T12:37:44;94505.56;;;27.12;39.92
7918;BME280;4004;42.624;23.386;2023-07-09T12:40:15;94509.28;;;27.18;38.55
7918;BME280;4004;42.624;23.386;2023-07-09T12:42:43;94506.41;;;27.22;38.83
7918;BME280;4004;42.624;23.386;2023-07-09T12:45:16;94502.22;;;27.17;38.80
7918;BME280;4004;42.624;23.386;2023-07-09T12:47:44;94505.41;;;27.06;40.51
7918;BME280;4004;42.624;23.386;2023-07-09T12:50:21;94496.34;;;27.06;39.86
7918;BME280;4004;42.624;23.386;2023-07-09T12:52:48;94486.88;;;27.16;39.40
7918;BME280;4004;42.624;23.386;2023-07-09T12:55:22;94489.84;;;27.22;39.77
7918;BME280;4004;42.624;23.386;2023-07-09T12:57:50;94496.00;;;27.26;39.02
7918;BME280;4004;42.624;23.386;2023-07-09T13:00:18;94489.13;;;27.31;39.21
7918;BME280;4004;42.624;23.386;2023-07-09T13:02:52;94475.56;;;27.23;39.69
7918;BME280;4004;42.624;23.386;2023-07-09T13:05:21;94492.13;;;27.23;40.15
7918;BME280;4004;42.624;23.386;2023-07-09T13:07:50;94495.47;;;27.18;39.37
7918;BME280;4004;42.624;23.386;2023-07-09T13:10:21;94492.72;;;27.18;39.85
7918;BME280;4004;42.624;23.386;2023-07-09T13:12:50;94495.03;;;27.20;39.93
7918;BME280;4004;42.624;23.386;2023-07-09T13:15:23;94493.56;;;27.28;40.11
7918;BME280;4004;42.624;23.386;2023-07-09T13:17:57;94489.38;;;27.23;41.17
7918;BME280;4004;42.624;23.386;2023-07-09T13:20:23;94483.59;;;27.31;39.50
7918;BME280;4004;42.624;23.386;2023-07-09T13:22:50;94497.97;;;27.25;39.02
7918;BME280;4004;42.624;23.386;2023-07-09T13:25:17;94502.00;;;27.34;38.99
7918;BME280;4004;42.624;23.386;2023-07-09T13:27:45;94495.84;;;27.29;39.09
7918;BME280;4004;42.624;23.386;2023-07-09T13:30:12;94503.31;;;27.20;39.27
7918;BME280;4004;42.624;23.386;2023-07-09T13:32:39;94490.97;;;27.34;39.35
7918;BME280;4004;42.624;23.386;2023-07-09T13:35:13;94488.38;;;27.39;39.94
7918;BME280;4004;42.624;23.386;2023-07-09T13:37:40;94479.00;;;27.37;40.08
7918;BME280;4004;42.624;23.386;2023-07-09T13:40:09;94495.63;;;27.55;40.42
7918;BME280;4004;42.624;23.386;2023-07-09T13:42:38;94494.06;;;27.45;39.80
7918;BME280;4004;42.624;23.386;2023-07-09T13:45:16;94492.50;;;27.35;39.65
7918;BME280;4004;42.624;23.386;2023-07-09T13:47:42;94495.84;;;27.29;39.87
7918;BME280;4004;42.624;23.386;2023-07-09T13:50:09;94503.19;;;27.23;40.32
7918;BME280;4004;42.624;23.386;2023-07-09T13:52:36;94490.81;;;27.37;40.38
7918;BME280;4004;42.624;23.386;2023-07-09T13:55:04;94488.50;;;27.36;40.64
7918;BME280;4004;42.624;23.386;2023-07-09T13:57:31;94509.53;;;27.33;40.21
7918;BME280;4004;42.624;23.386;2023-07-09T13:59:58;94488.22;;;27.43;40.35
7918;BME280;4004;42.624;23.386;2023-07-09T14:02:29;94504.94;;;27.39;40.19
7918;BME280;4004;42.624;23.386;2023-07-09T14:04:57;94503.06;;;27.36;40.53
7918;BME280;4004;42.624;23.386;2023-07-09T14:07:27;94509.09;;;27.44;40.52
7918;BME280;4004;42.624;23.386;2023-07-09T14:09:55;94512.19;;;27.46;41.02
7918;BME280;4004;42.624;23.386;2023-07-09T14:12:22;94496.38;;;27.46;40.52
7918;BME280;4004;42.624;23.386;2023-07-09T14:14:50;94508.19;;;27.47;40.07
7918;BME280;4004;42.624;23.386;2023-07-09T14:17:17;94516.75;;;27.40;40.21
7918;BME280;4004;42.624;23.386;2023-07-09T14:19:45;94515.69;;;27.37;40.16
7918;BME280;4004;42.624;23.386;2023-07-09T14:22:21;94505.06;;;27.36;40.46
7918;BME280;4004;42.624;23.386;2023-07-09T14:24:49;94511.66;;;27.29;40.57
7918;BME280;4004;42.624;23.386;2023-07-09T14:27:17;94505.66;;;27.21;40.73
7918;BME280;4004;42.624;23.386;2023-07-09T14:29:44;94503.19;;;27.23;40.48
7918;BME280;4004;42.624;23.386;2023-07-09T14:32:26;94492.69;;;27.09;40.64
7918;BME280;4004;42.624;23.386;2023-07-09T14:34:58;94499.72;;;27.10;41.52
7918;BME280;4004;42.624;23.386;2023-07-09T14:37:25;94497.16;;;27.16;41.26
7918;BME280;4004;42.624;23.386;2023-07-09T14:39:52;94497.16;;;27.16;41.16
7918;BME280;4004;42.624;23.386;2023-07-09T14:42:19;94502.03;;;27.12;41.00
7918;BME280;4004;42.624;23.386;2023-07-09T14:44:48;94502.03;;;27.12;41.15
7918;BME280;4004;42.624;23.386;2023-07-09T14:47:17;94494.81;;;27.05;42.16
7918;BME280;4004;42.624;23.386;2023-07-09T14:49:44;94507.25;;;27.09;41.49
7918;BME280;4004;42.624;23.386;2023-07-09T14:52:14;94494.34;;;27.06;42.12
7918;BME280;4004;42.624;23.386;2023-07-09T14:54:43;94495.53;;;26.96;41.07
7918;BME280;4004;42.624;23.386;2023-07-09T14:57:18;94494.88;;;26.92;41.20
7918;BME280;4004;42.624;23.386;2023-07-09T14:59:47;94494.44;;;26.94;40.77
7918;BME280;4004;42.624;23.386;2023-07-09T15:02:21;94502.28;;;26.95;39.85
7918;BME280;4004;42.624;23.386;2023-07-09T15:04:50;94488.47;;;26.95;40.75
7918;BME280;4004;42.624;23.386;2023-07-09T15:07:18;94502.09;;;26.90;39.83
7918;BME280;4004;42.624;23.386;2023-07-09T15:09:45;94503.44;;;26.85;39.56